createdAt,value
2018-07-06T07:02:49.026Z,948.5
2018-07-06T07:04:58.484Z,948.6
2018-07-06T07:08:18.449Z,948.6
2018-07-06T07:12:46.002Z,948.5
2018-07-06T07:15:00.530Z,948.5
2018-07-06T07:18:05.003Z,948.5
2018-07-06T07:20:16.960Z,948.5
2018-07-06T07:22:31.604Z,948.5
2018-07-06T07:24:38.129Z,948.5
2018-07-06T07:26:42.624Z,948.3
2018-07-06T07:28:56.855Z,948.4
2018-07-06T07:31:06.924Z,948.4
2018-07-06T07:33:16.707Z,948.4
2018-07-06T07:35:26.821Z,948.4
2018-07-06T07:37:33.949Z,948.4
2018-07-06T07:39:40.843Z,948.3
2018-07-06T07:41:47.560Z,948.3
2018-07-06T07:43:55.549Z,948.3
2018-07-06T07:46:01.878Z,948.3
2018-07-06T07:48:09.096Z,948.3
2018-07-06T07:50:13.171Z,948.2
2018-07-06T07:52:17.184Z,948.3
2018-07-06T07:55:02.560Z,948.3
2018-07-06T07:57:35.180Z,948.3
2018-07-06T07:59:52.236Z,948.3
2018-07-06T08:02:12.257Z,948.3
2018-07-06T08:04:19.573Z,948.3
2018-07-06T08:06:23.681Z,948.3
2018-07-06T08:08:28.156Z,948.2
2018-07-06T08:10:39.098Z,948.3
2018-07-06T08:12:47.247Z,948.3
2018-07-06T08:14:58.050Z,948.3
2018-07-06T08:17:08.583Z,948.3
2018-07-06T08:19:18.904Z,948.2
2018-07-06T08:21:32.941Z,948.3
2018-07-06T08:23:40.856Z,948.2
2018-07-06T08:25:46.090Z,948.2
2018-07-06T08:27:49.921Z,948.2
2018-07-06T08:29:57.867Z,948.2
2018-07-06T08:32:19.669Z,948.2
2018-07-06T08:34:53.178Z,948.2
2018-07-06T08:37:03.324Z,948.1
2018-07-06T08:39:14.213Z,948.1
2018-07-06T08:44:23.568Z,948.1
2018-07-06T08:46:31.640Z,948.1
2018-07-06T08:48:39.580Z,948.2
2018-07-06T08:50:51.521Z,948.2
2018-07-06T08:53:05.015Z,948.2
2018-07-06T08:55:12.754Z,948.1
2018-07-06T08:58:00.894Z,948.2
2018-07-06T09:00:24.433Z,948.2
2018-07-06T09:02:36.693Z,948.1
2018-07-06T09:04:40.775Z,948.2
2018-07-06T09:06:53.689Z,948.2
2018-07-06T09:09:00.597Z,948.1
2018-07-06T09:11:17.995Z,948
2018-07-06T09:13:28.807Z,948
2018-07-06T09:16:14.528Z,948.1
2018-07-06T09:18:35.315Z,948.1
2018-07-06T09:20:40.671Z,948
2018-07-06T09:22:48.362Z,948
2018-07-06T09:24:52.972Z,948
2018-07-06T09:26:59.315Z,948
2018-07-06T09:29:03.054Z,947.9
2018-07-06T09:31:06.901Z,947.9
2018-07-06T09:33:16.935Z,947.9
2018-07-06T09:35:24.365Z,947.8
2018-07-06T09:37:29.318Z,947.9
2018-07-06T09:39:37.040Z,947.8
2018-07-06T09:41:44.150Z,947.8
2018-07-06T09:43:51.570Z,947.8
2018-07-06T09:45:55.867Z,947.7
2018-07-06T09:48:03.724Z,947.7
2018-07-06T09:50:08.100Z,947.8
2018-07-06T09:52:17.746Z,947.7
2018-07-06T09:54:21.479Z,947.7
2018-07-06T09:56:27.655Z,947.7
2018-07-06T09:58:31.464Z,947.7
2018-07-06T10:00:35.316Z,947.8
2018-07-06T10:02:39.208Z,947.7
2018-07-06T10:04:43.181Z,947.7
2018-07-06T10:06:46.899Z,947.7
2018-07-06T10:08:50.562Z,947.7
2018-07-06T10:10:54.626Z,947.7
2018-07-06T10:12:58.725Z,947.6
2018-07-06T10:15:07.477Z,947.6
2018-07-06T10:17:24.681Z,947.6
2018-07-06T10:19:28.714Z,947.6
2018-07-06T10:21:32.528Z,947.6
2018-07-06T10:23:36.469Z,947.6
2018-07-06T10:25:40.511Z,947.6
2018-07-06T10:27:44.540Z,947.5
2018-07-06T10:29:48.111Z,947.5
2018-07-06T10:31:51.582Z,947.5
2018-07-06T10:33:55.489Z,947.6
2018-07-06T10:35:59.265Z,947.6
2018-07-06T10:38:03.038Z,947.4
2018-07-06T10:40:06.793Z,947.5
2018-07-06T10:42:10.479Z,947.6
2018-07-06T10:44:14.149Z,947.6
2018-07-06T10:46:17.780Z,947.6
2018-07-06T10:48:21.424Z,947.5
2018-07-06T10:50:24.976Z,947.5
2018-07-06T10:52:28.508Z,947.5
2018-07-06T10:54:35.151Z,947.5
2018-07-06T10:56:39.870Z,947.5
2018-07-06T10:58:08.542Z,947.5
2018-07-06T10:58:40.428Z,947.4
2018-07-06T11:48:09.162Z,947.2
2018-07-06T11:50:13.901Z,947.2
2018-07-06T11:52:24.169Z,947.1
2018-07-06T11:54:28.378Z,947.2
2018-07-06T11:56:32.441Z,947.2
2018-07-06T11:58:37.694Z,947.2
2018-07-06T12:00:47.587Z,947.2
2018-07-06T12:03:00.905Z,947.1
2018-07-06T12:05:05.419Z,947
2018-07-06T13:29:57.074Z,946.6
2018-07-06T13:32:03.019Z,946.6
2018-07-06T13:34:10.556Z,946.7
2018-07-06T15:03:55.242Z,947.7
2018-07-06T15:05:36.215Z,947.7
2018-07-06T15:07:41.616Z,947.7
2018-07-06T15:09:20.796Z,947.7
2018-07-06T15:12:08.711Z,947.7
2018-07-06T15:14:15.712Z,947.6
2018-07-06T15:19:35.832Z,947.7
2018-07-06T15:33:25.502Z,947.4
2018-07-06T15:35:30.695Z,947.4
2018-07-06T15:37:35.697Z,947.3
2018-07-06T15:39:39.422Z,947.4
2018-07-06T15:41:43.479Z,947.4
2018-07-06T15:43:47.431Z,947.4
2018-07-06T15:45:28.819Z,947.4
2018-07-06T15:47:32.654Z,947.4
2018-07-06T15:49:36.364Z,947.4
2018-07-06T15:51:40.121Z,947.4
2018-07-06T15:53:43.868Z,947.4
2018-07-06T15:55:48.006Z,947.4
2018-07-06T15:57:52.030Z,947.3
2018-07-06T15:59:55.849Z,947.2
2018-07-06T16:01:59.762Z,947.3
2018-07-06T16:04:03.381Z,947.2
2018-07-06T16:06:07.037Z,947.2
2018-07-06T16:08:10.624Z,947.2
2018-07-06T16:10:14.233Z,947.2
2018-07-06T16:12:18.161Z,947.1
2018-07-06T16:14:22.041Z,947.1
2018-07-06T16:16:25.782Z,947.1
2018-07-06T16:18:29.551Z,947.1
2018-07-06T16:20:33.209Z,947.1
2018-07-06T16:22:36.893Z,947.1
2018-07-06T16:24:40.599Z,947.2
2018-07-06T16:26:44.207Z,947.2
2018-07-06T16:28:47.991Z,947.2
2018-07-06T16:30:51.722Z,947.2
2018-07-06T16:32:55.306Z,947.1
2018-07-06T16:34:59.157Z,947.1
2018-07-06T16:37:02.756Z,947.1
2018-07-06T16:39:06.368Z,947
2018-07-06T16:41:12.726Z,947
2018-07-06T16:43:16.314Z,947
2018-07-06T16:45:19.993Z,947
2018-07-06T16:47:23.760Z,947
2018-07-06T18:59:07.658Z,951.1
2018-07-06T18:59:59.774Z,951.1
2018-07-06T19:02:02.700Z,951.3
2018-07-06T19:04:05.611Z,951.2
2018-07-06T19:06:08.524Z,951.2
2018-07-06T19:08:11.441Z,951.2
2018-07-06T19:10:14.350Z,951.2
2018-07-06T19:12:17.269Z,951.2
2018-07-06T19:14:20.287Z,951.2
2018-07-06T19:16:23.179Z,951.2
2018-07-06T19:18:26.089Z,951.3
2018-07-06T19:20:29.003Z,951.3
2018-07-06T19:22:31.919Z,951.3
2018-07-06T19:24:34.834Z,951.2
2018-07-06T19:26:37.752Z,951.2
2018-07-06T19:28:40.670Z,951.2
2018-07-06T19:30:43.596Z,951.1
2018-07-06T19:32:46.507Z,951.2
2018-07-06T19:34:49.428Z,951.2
2018-07-06T19:36:52.370Z,951.1
2018-07-06T19:38:55.284Z,951.2
2018-07-06T19:40:58.198Z,951.2
2018-07-06T19:43:01.113Z,951.2
2018-07-06T19:45:04.054Z,951.3
2018-07-06T19:47:06.971Z,951.4
2018-07-06T19:49:09.918Z,951.4
2018-07-06T19:51:12.869Z,951.5
2018-07-06T19:53:15.790Z,951.6
2018-07-06T19:55:18.822Z,951.7
2018-07-06T19:57:22.921Z,951.6
2018-07-06T19:59:25.834Z,951.6
2018-07-06T20:01:28.827Z,951.6
2018-07-06T20:03:31.700Z,951.6
2018-07-06T20:05:34.616Z,951.6
2018-07-06T20:07:37.529Z,951.7
2018-07-06T20:09:40.452Z,951.6
2018-07-06T20:11:43.363Z,951.7
2018-07-06T20:13:46.321Z,951.7
2018-07-06T20:15:49.272Z,951.7
2018-07-06T20:17:57.740Z,951.7
2018-07-06T20:20:00.653Z,951.7
2018-07-06T20:22:03.569Z,951.6
2018-07-06T20:24:06.482Z,951.5
2018-07-06T20:26:09.398Z,951.5
2018-07-06T20:28:12.326Z,951.6
2018-07-06T20:30:15.247Z,951.6
2018-07-06T20:32:18.162Z,951.6
2018-07-06T20:34:21.073Z,951.6
2018-07-06T20:36:23.988Z,951.7
2018-07-06T20:38:26.903Z,951.7
2018-07-06T20:40:29.820Z,951.6
2018-07-06T20:42:32.734Z,951.7
2018-07-06T20:44:35.650Z,951.6
2018-07-06T20:46:38.609Z,951.6
2018-07-06T20:48:41.527Z,951.7
2018-07-06T20:50:44.444Z,951.8
2018-07-06T20:52:47.412Z,951.7
2018-07-06T20:54:50.322Z,951.8
2018-07-06T20:56:53.314Z,951.7
2018-07-06T20:58:56.232Z,951.8
2018-07-06T21:00:59.150Z,951.8
2018-07-06T21:03:02.193Z,951.8
2018-07-06T21:05:05.113Z,951.9
2018-07-06T21:07:08.030Z,951.9
2018-07-06T21:09:11.001Z,951.9
2018-07-06T21:11:13.913Z,951.9
2018-07-06T21:13:16.867Z,951.9
2018-07-06T21:15:19.782Z,951.9
2018-07-06T21:17:22.698Z,951.9
2018-07-06T21:19:25.611Z,951.9
2018-07-06T21:21:28.529Z,951.9
2018-07-06T21:23:31.501Z,951.8
2018-07-06T21:25:34.416Z,951.8
2018-07-06T21:27:37.330Z,951.8
2018-07-06T21:29:40.240Z,951.7
2018-07-06T21:31:43.236Z,951.9
2018-07-06T21:33:46.157Z,951.8
2018-07-06T21:35:49.297Z,951.8
2018-07-06T21:37:52.241Z,951.8
2018-07-06T21:39:56.095Z,951.9
2018-07-06T21:41:59.006Z,951.8
2018-07-06T21:44:01.919Z,951.9
2018-07-06T21:46:04.835Z,951.9
2018-07-06T21:48:07.800Z,951.8
2018-07-06T21:50:10.718Z,951.9
2018-07-06T21:52:13.633Z,951.8
2018-07-06T21:54:16.548Z,951.8
2018-07-06T21:56:19.462Z,951.8
2018-07-06T21:58:22.420Z,951.8
2018-07-06T22:00:25.332Z,951.7
2018-07-06T22:02:28.247Z,951.8
2018-07-06T22:03:43.949Z,951.7
2018-07-06T22:05:47.316Z,951.7
2018-07-06T22:07:39.074Z,951.7
2018-07-06T22:09:42.405Z,951.7
2018-07-06T22:11:45.737Z,951.7
2018-07-06T22:13:52.225Z,951.7
2018-07-06T22:15:55.556Z,951.7
2018-07-06T22:17:58.885Z,951.7
2018-07-06T22:20:02.215Z,951.7
2018-07-06T22:22:05.682Z,951.7
2018-07-06T22:24:09.006Z,951.6
2018-07-06T22:26:12.358Z,951.6
2018-07-06T22:28:15.685Z,951.6
2018-07-06T22:30:19.017Z,951.6
2018-07-06T22:32:22.428Z,951.6
2018-07-06T22:34:25.836Z,951.5
2018-07-06T22:36:29.174Z,951.4
2018-07-06T22:38:32.549Z,951.4
2018-07-06T22:40:36.191Z,951.4
2018-07-06T22:42:39.534Z,951.4
2018-07-06T22:44:42.866Z,951.5
2018-07-06T22:46:46.206Z,951.4
2018-07-06T22:48:49.547Z,951.3
2018-07-06T22:50:52.878Z,951.4
2018-07-06T22:52:56.208Z,951.4
2018-07-06T22:54:59.536Z,951.4
2018-07-06T22:57:02.884Z,951.5
2018-07-06T22:59:06.218Z,951.4
2018-07-06T23:01:09.562Z,951.4
2018-07-06T23:03:12.874Z,951.4
2018-07-06T23:05:16.530Z,951.4
2018-07-06T23:07:20.383Z,951.3
2018-07-06T23:09:23.715Z,951.3
2018-07-06T23:11:27.045Z,951.3
2018-07-06T23:13:30.468Z,951.3
2018-07-06T23:15:33.804Z,951.2
2018-07-06T23:17:37.134Z,951.2
2018-07-06T23:19:40.466Z,951.1
2018-07-06T23:21:43.794Z,951.2
2018-07-06T23:23:47.124Z,951.2
2018-07-06T23:25:50.455Z,951.1
2018-07-06T23:27:53.785Z,951.1
2018-07-06T23:29:57.114Z,951.1
2018-07-06T23:32:00.461Z,951.1
2018-07-06T23:34:03.791Z,951.2
2018-07-06T23:36:07.125Z,951.1
2018-07-06T23:38:10.577Z,951.2
2018-07-06T23:40:13.909Z,951.1
2018-07-06T23:42:17.239Z,951.1
2018-07-06T23:44:20.607Z,951.1
2018-07-06T23:46:23.937Z,951.1
2018-07-06T23:48:27.268Z,951.2
2018-07-06T23:50:30.611Z,951.3
2018-07-06T23:52:33.952Z,951.2
2018-07-06T23:54:37.498Z,951.1
2018-07-06T23:56:41.105Z,951.2
2018-07-06T23:58:44.436Z,951.1
